• Join FlightAware (Why Join?)
  • Login
  • US Flag 
11:44PM EST


 

Airport Tracker/Info


-or-


 

Live Flight TrackerFlight Track Log ✈ EZY1840 ✈ 15-Apr-2013 ✈ LGTS / SKG - EGCC / MAN

Flight Track Log - Related Links

Times and Time Zones

All times are in EDT time to prevent confusion due to time zone crossing. See the EZY1840 flight status page for this flight to view local times or setup timezone preferences in your user account.

Time Position Orientation Groundspeed Altitude Reporting Facility
EDT Latitude Longitude Course Direction KTS MPH feet Rate Location/Type
05:09AM 40.5440 22.9630 333° Northwest 143 165 1,100  Level FlightAware
05:09AM 40.5510 22.9560 323° Northwest 154 177 1,400 1,620 Climbing FlightAware
05:10AM 40.5700 22.9330 317° Northwest 191 220 2,200 1,560 Climbing FlightAware
05:10AM 40.5810 22.9210 320° Northwest 213 245 2,600 1,920 Climbing FlightAware
05:10AM 40.5890 22.9170 339° North 216 249 3,000 1,560 Climbing FlightAware
05:10AM 40.5910 22.9160 339° North 226 260 3,000 2,580 Level FlightAware
05:11AM 40.6210 22.9210 North 244 281 4,300 3,600 Climbing FlightAware
05:11AM 40.6460 22.9240 North 247 284 5,700 3,600 Climbing FlightAware
05:11AM 40.6800 22.9300 North 257 296 7,300 3,360 Climbing FlightAware
05:12AM 40.7410 22.9160 350° North 280 322 10,200 3,300 Climbing FlightAware
05:13AM 40.7830 22.8730 322° Northwest 289 333 12,300 2,940 Climbing FlightAware
05:14AM 40.8370 22.8350 332° Northwest 292 336 14,400 2,040 Climbing FlightAware
05:14AM 40.8950 22.8240 352° North 340 391 15,200 1,920 Climbing FlightAware
05:15AM 40.9580 22.8110 351° North 341 392 17,000 2,640 Climbing FlightAware
05:16AM 41.0310 22.7980 352° North 357 411 19,000 2,760 Climbing FlightAware
05:16AM 41.0890 22.7800 347° North 356 410 20,700 3,720 Climbing FlightAware
05:17AM 41.1580 22.7370 335° Northwest 309 356 24,300 3,240 Climbing FlightAware
05:18AM 41.2050 22.6910 324° Northwest 325 374 25,600 2,160 Climbing FlightAware
05:19AM 41.2460 22.6320 313° West 322 371 27,200 1,800 Climbing FlightAware
05:19AM 41.2840 22.5490 301° West 352 405 28,200 1,320 Climbing FlightAware
05:20AM 41.3070 22.4650 290° West 377 434 29,100 1,260 Climbing FlightAware
05:21AM 41.3260 22.3650 284° West 386 444 30,000 1,260 Climbing FlightAware
05:21AM 41.3440 22.2730 285° West 392 451 30,900 1,260 Climbing FlightAware
05:22AM 41.3630 22.1770 285° West 396 456 31,700 1,260 Climbing FlightAware
05:23AM 41.3840 22.0680 284° West 398 458 32,700 1,380 Climbing FlightAware
05:23AM 41.4020 21.9750 284° West 395 455 33,700 1,380 Climbing FlightAware
05:24AM 41.4210 21.8730 284° West 393 452 34,700 1,200 Climbing FlightAware
05:25AM 41.4400 21.7770 285° West 393 452 35,400 900 Climbing FlightAware
05:26AM 41.4580 21.6830 284° West 398 458 35,900 720 Climbing FlightAware
05:26AM 41.4780 21.5760 284° West 401 461 36,500 1,020 Climbing FlightAware
05:27AM 41.4960 21.4820 284° West 391 450 37,400 900 Climbing FlightAware
05:28AM 41.5140 21.3850 284° West 397 457 37,700 480 Climbing FlightAware
05:28AM 41.5340 21.2790 284° West 384 442 38,100 180 Climbing FlightAware
05:29AM 41.5500 21.1920 284° West 390 449 38,000 -120 Descending FlightAware
05:30AM 41.5700 21.0830 284° West 398 458 38,000  Level FlightAware
05:30AM 41.5910 20.9890 287° West 385 443 38,000  Level FlightAware
05:31AM 41.6420 20.9150 313° West 368 423 38,000  Level FlightAware
05:32AM 41.6910 20.8530 317° Northwest 372 428 38,000  Level FlightAware
05:33AM 41.7400 20.7900 316° Northwest 374 430 38,000 60 Level FlightAware
05:33AM 41.8000 20.7160 317° Northwest 372 428 38,100 60 Climbing FlightAware
05:34AM 41.8510 20.6520 317° Northwest 372 428 38,100 -120 Level FlightAware
05:35AM 41.9050 20.5840 317° Northwest 369 425 38,000 -120 Descending FlightAware
05:35AM 41.9540 20.5220 317° Northwest 365 420 38,000  Level FlightAware
05:36AM 42.0040 20.4590 317° Northwest 363 418 38,000  Level FlightAware
05:37AM 42.0590 20.3890 317° Northwest 365 420 38,000  Level FlightAware
05:37AM 42.1090 20.3260 317° Northwest 369 425 38,000  Level FlightAware
05:38AM 42.1560 20.2660 317° Northwest 371 427 38,000  Level FlightAware
05:39AM 42.2130 20.1930 317° Northwest 371 427 38,000  Level FlightAware
05:40AM 42.2630 20.1300 317° Northwest 372 428 38,000  Level FlightAware
05:40AM 42.3200 20.0560 316° Northwest 373 429 38,000  Level FlightAware
05:41AM 42.3700 19.9930 317° Northwest 372 428 38,000  Level FlightAware
05:42AM 42.4290 19.9260 320° Northwest 368 423 38,000  Level FlightAware
05:42AM 42.4820 19.8680 321° Northwest 366 421 38,000  Level FlightAware
05:43AM 42.5340 19.8140 323° Northwest 363 418 38,000  Level FlightAware
05:44AM 42.5940 19.7480 321° Northwest 364 419 38,000  Level FlightAware
05:44AM 42.6470 19.6920 322° Northwest 366 421 38,000  Level FlightAware
05:45AM 42.7070 19.6270 321° Northwest 372 428 38,000  Level FlightAware
05:46AM 42.7590 19.5700 321° Northwest 372 428 38,000  Level FlightAware
05:47AM 42.8330 19.4900 322° Northwest 374 430 38,000  Level FlightAware
05:48AM 42.8920 19.4260 322° Northwest 374 430 38,000  Level FlightAware
05:48AM 42.9410 19.3720 321° Northwest 376 433 38,000  Level FlightAware
05:49AM 42.9990 19.3100 322° Northwest 377 434 38,000  Level FlightAware
05:50AM 43.0560 19.2470 321° Northwest 379 436 38,000  Level FlightAware
05:50AM 43.1140 19.1820 321° Northwest 379 436 38,000  Level FlightAware
05:51AM 43.1720 19.1180 321° Northwest 381 438 38,000  Level FlightAware
05:52AM 43.2180 19.0680 322° Northwest 381 438 38,000  Level FlightAware
05:52AM 43.2790 19.0000 321° Northwest 381 438 38,000  Level FlightAware
05:53AM 43.3520 18.9200 321° Northwest 379 436 38,000  Level FlightAware
05:54AM 43.4040 18.8610 321° Northwest 376 433 38,000  Level FlightAware
05:54AM 43.4610 18.7970 321° Northwest 375 432 38,000  Level FlightAware
05:55AM 43.5190 18.7330 321° Northwest 371 427 38,000  Level FlightAware
05:56AM 43.5770 18.6680 321° Northwest 370 426 38,000  Level FlightAware
05:57AM 43.6270 18.6120 321° Northwest 371 427 38,000  Level FlightAware
05:57AM 43.6890 18.5420 321° Northwest 371 427 38,000  Level FlightAware
05:58AM 43.7400 18.4840 321° Northwest 373 429 38,000  Level FlightAware
05:59AM 43.8020 18.4140 321° Northwest 376 433 38,000  Level FlightAware
05:59AM 43.8540 18.3550 321° Northwest 378 435 38,000  Level FlightAware
06:00AM 43.9150 18.2860 321° Northwest 380 437 38,000  Level FlightAware
06:01AM 43.9700 18.2230 321° Northwest 382 440 38,000  Level FlightAware
06:01AM 44.0230 18.1620 320° Northwest 382 440 38,000  Level FlightAware
06:02AM 44.0870 18.0880 320° Northwest 385 443 38,000  Level FlightAware
06:03AM 44.1400 18.0270 320° Northwest 379 436 38,000  Level FlightAware
06:04AM 44.2030 17.9550 321° Northwest 379 436 38,000  Level FlightAware
06:04AM 44.2580 17.8920 321° Northwest 379 436 38,000  Level FlightAware
06:05AM 44.3090 17.8320 320° Northwest 380 437 38,000  Level FlightAware
06:06AM 44.3720 17.7490 317° Northwest 389 448 38,000  Level FlightAware
06:06AM 44.4180 17.6730 310° West 396 456 38,000  Level FlightAware
06:07AM 44.4720 17.5850 311° West 396 456 38,000  Level FlightAware
06:08AM 44.5180 17.5080 310° West 396 456 38,000  Level FlightAware
06:08AM 44.5670 17.4280 311° West 396 456 38,000  Level FlightAware
06:09AM 44.6130 17.3510 310° West 395 455 38,000  Level FlightAware
06:10AM 44.6620 17.2680 310° West 389 448 38,000  Level FlightAware
06:11AM 44.7120 17.1860 311° West 388 447 38,000  Level FlightAware
06:11AM 44.7650 17.0960 310° West 388 447 38,000  Level FlightAware
06:12AM 44.8100 17.0210 310° West 390 449 38,000  Level FlightAware
06:13AM 44.8650 16.9290 310° West 390 449 38,000  Level FlightAware
06:13AM 44.9110 16.8510 310° West 391 450 38,000  Level FlightAware
06:14AM 44.9590 16.7700 310° West 391 450 38,000  Level FlightAware
06:15AM 45.0050 16.6910 309° West 392 451 38,000  Level FlightAware
06:16AM 45.0640 16.5920 310° West 393 452 38,000  Level FlightAware
06:16AM 45.1080 16.5160 309° West 392 451 38,000  Level FlightAware
06:17AM 45.1550 16.4360 310° West 392 451 38,000  Level FlightAware
06:18AM 45.2040 16.3510 309° West 392 451 38,000  Level FlightAware
06:18AM 45.2560 16.2620 310° West 393 452 38,000  Level FlightAware
06:19AM 45.3080 16.1720 309° West 394 453 38,000  Level FlightAware
06:20AM 45.3570 16.0870 309° West 395 455 38,000  Level FlightAware
06:20AM 45.4030 16.0070 309° West 395 455 38,000  Level FlightAware
06:21AM 45.4430 15.9360 309° West 396 456 38,000  Level FlightAware
06:22AM 45.5020 15.8340 310° West 397 457 38,000  Level FlightAware
06:23AM 45.5520 15.7460 309° West 398 458 38,000  Level FlightAware
06:23AM 45.5990 15.6640 309° West 398 458 38,000  Level FlightAware
06:24AM 45.6550 15.5640 309° West 399 459 38,000  Level FlightAware
06:25AM 45.6940 15.4950 309° West 400 460 38,000  Level FlightAware
06:25AM 45.7490 15.3970 309° West 406 467 38,000  Level FlightAware
06:26AM 45.8000 15.3070 309° West 403 464 38,000  Level FlightAware
06:27AM 45.8430 15.2300 309° West 407 468 38,000  Level FlightAware
06:27AM 45.8990 15.1280 308° West 402 463 38,000  Level FlightAware
06:28AM 45.9410 15.0530 309° West 402 463 38,000  Level FlightAware
06:29AM 45.9840 14.9760 309° West 407 468 38,000  Level FlightAware
06:30AM 46.0420 14.8710 309° West 408 470 38,000  Level FlightAware
06:30AM 46.0850 14.7910 308° West 408 470 38,000  Level FlightAware
06:31AM 46.1410 14.6880 308° West 408 470 38,000  Level FlightAware
06:32AM 46.1900 14.5990 309° West 409 471 38,000  Level FlightAware
06:33AM 46.2420 14.5030 308° West 411 473 38,000  Level FlightAware
06:33AM 46.2920 14.4120 309° West 412 474 38,000  Level FlightAware
06:34AM 46.3370 14.3300 308° West 411 473 38,000  Level FlightAware
06:35AM 46.3960 14.2200 308° West 411 473 38,000  Level FlightAware
06:36AM 46.4690 14.0830 308° West 407 468 38,000  Level FlightAware
06:36AM 46.5180 13.9910 308° West 408 470 38,000  Level FlightAware
06:37AM 46.5610 13.9110 308° West 408 470 38,000  Level FlightAware
06:38AM 46.6180 13.8030 308° West 408 470 38,000  Level FlightAware
06:38AM 46.6660 13.7120 308° West 410 472 38,000  Level FlightAware
06:39AM 46.7060 13.6360 308° West 413 475 38,000  Level FlightAware
06:40AM 46.7650 13.5240 308° West 420 483 38,000  Level FlightAware
06:40AM 46.8100 13.4400 308° West 422 486 38,000  Level FlightAware
06:41AM 46.8560 13.3510 307° West 421 484 38,000  Level FlightAware
06:42AM 46.9060 13.2540 307° West 422 486 38,000  Level FlightAware
06:43AM 46.9650 13.1400 307° West 423 487 38,000  Level FlightAware
06:43AM 47.0140 13.0450 307° West 424 488 38,000  Level FlightAware
06:44AM 47.0510 12.9740 307° West 425 489 38,000  Level FlightAware
06:45AM 47.1110 12.8560 307° West 420 483 38,000  Level FlightAware
06:45AM 47.1580 12.7640 307° West 425 489 38,000  Level FlightAware
06:46AM 47.2110 12.6600 307° West 419 482 38,000  Level FlightAware
06:47AM 47.2570 12.5690 307° West 419 482 38,000  Level FlightAware
06:47AM 47.3020 12.4780 306° West 418 481 38,000  Level FlightAware
06:48AM 47.3490 12.3670 302° West 417 480 38,000  Level FlightAware
06:49AM 47.3890 12.2730 302° West 422 486 38,000  Level FlightAware
06:50AM 47.4390 12.1560 302° West 423 487 38,000  Level FlightAware
06:50AM 47.4790 12.0630 302° West 423 487 38,000  Level FlightAware
06:51AM 47.5230 11.9610 303° West 425 489 38,000  Level FlightAware
06:52AM 47.5710 11.8470 302° West 426 490 38,000  Level FlightAware
06:52AM 47.6120 11.7510 302° West 426 490 38,000  Level FlightAware
06:53AM 47.6590 11.6390 302° West 428 493 38,000  Level FlightAware
06:54AM 47.6990 11.5450 302° West 428 493 38,000  Level FlightAware
06:54AM 47.7430 11.4410 302° West 428 493 38,000  Level FlightAware
06:55AM 47.7860 11.3370 302° West 428 493 38,000  Level FlightAware
06:56AM 47.8300 11.2310 302° West 428 493 38,000  Level FlightAware
06:57AM 47.8780 11.1150 302° West 428 493 38,000  Level FlightAware
06:57AM 47.9200 11.0140 302° West 427 491 38,000  Level FlightAware
06:58AM 47.9600 10.9150 301° West 427 491 38,000  Level FlightAware
06:59AM 48.0070 10.8010 302° West 424 488 38,000  Level FlightAware
06:59AM 48.0490 10.6990 302° West 424 488 38,000  Level FlightAware
07:00AM 48.0940 10.5870 301° West 422 486 38,000  Level FlightAware
07:01AM 48.1260 10.5080 301° West 423 487 38,000  Level FlightAware
07:02AM 48.1810 10.3710 301° West 425 489 38,000  Level FlightAware
07:02AM 48.2230 10.2680 301° West 426 490 38,000  Level FlightAware
07:03AM 48.2640 10.1640 301° West 426 490 38,000  Level FlightAware
07:04AM 48.3050 10.0620 301° West 426 490 38,000  Level FlightAware
07:04AM 48.3500 9.9470 301° West 426 490 38,000  Level FlightAware
07:05AM 48.3890 9.8480 301° West 427 491 38,000  Level FlightAware
07:06AM 48.4360 9.7290 301° West 427 491 38,000  Level FlightAware
07:06AM 48.4750 9.6280 300° West 427 491 38,000  Level FlightAware
07:07AM 48.5180 9.5170 300° West 426 490 38,000  Level FlightAware
07:08AM 48.5560 9.4190 300° West 426 490 38,000  Level FlightAware
07:09AM 48.6150 9.2990 307° West 428 493 38,000  Level FlightAware
07:09AM 48.6640 9.2040 308° West 427 491 38,000  Level FlightAware
07:10AM 48.7130 9.1080 308° West 426 490 38,000  Level FlightAware
07:11AM 48.7660 9.0040 308° West 426 490 38,000  Level FlightAware
07:11AM 48.8160 8.9060 308° West 430 495 38,000  Level FlightAware
07:12AM 48.8640 8.8120 308° West 427 491 38,000  Level FlightAware
07:13AM 48.9200 8.7020 308° West 429 494 38,000  Level FlightAware
07:13AM 48.9680 8.6050 307° West 430 495 38,000  Level FlightAware
07:14AM 49.0240 8.4940 308° West 433 498 38,000  Level FlightAware
07:15AM 49.0700 8.4020 307° West 434 499 38,000  Level FlightAware
07:16AM 49.1240 8.2930 307° West 434 499 38,000  Level FlightAware
07:16AM 49.1650 8.2100 307° West 439 505 38,000  Level FlightAware
07:17AM 49.2170 8.1060 307° West 434 499 38,000  Level FlightAware
07:18AM 49.2780 7.9820 307° West 434 499 38,000  Level FlightAware
07:18AM 49.3290 7.8780 307° West 435 501 38,000  Level FlightAware
07:19AM 49.3820 7.7680 307° West 436 502 38,000  Level FlightAware
07:20AM 49.4320 7.6660 307° West 436 502 38,000  Level FlightAware
07:21AM 49.5600 7.4010 306° West 438 504 38,000  Level FlightAware
07:22AM 49.5404 7.4366 306° West  Level Estimated
07:22AM 49.6190 7.2770 306° West 435 501 38,000  Level FlightAware
07:23AM 49.6580 7.1950 306° West 435 501 38,000  Level FlightAware
07:26AM 49.8150 6.8558 306° West  Level Estimated
07:26AM 49.8870 6.7110 306° West 425 489 38,000  Level FlightAware
07:27AM 49.9560 6.5640 306° West 424 488 38,000  Level FlightAware
07:28AM 50.0260 6.4140 306° West 426 490 38,000  Level FlightAware
07:29AM 50.0720 6.3130 305° West 429 494 38,000  Level FlightAware
07:29AM 50.1180 6.2130 306° West 431 496 38,000  Level FlightAware
07:30AM 50.1630 6.1140 305° West 438 504 38,000  Level FlightAware
07:31AM 50.2190 5.9920 306° West 442 509 38,000 60 Level FlightAware
07:32AM 50.2730 5.8730 305° West 443 510 38,100 60 Climbing FlightAware
07:32AM 50.3200 5.7700 306° West 442 509 38,100 -120 Level FlightAware
07:33AM 50.3690 5.6610 305° West 434 499 38,000 -120 Descending FlightAware
07:34AM 50.4140 5.5610 305° West 433 498 38,000  Level FlightAware
07:34AM 50.4660 5.4440 305° West 432 497 38,000  Level FlightAware
07:35AM 50.5170 5.3300 305° West 431 496 38,000  Level FlightAware
07:36AM 50.5630 5.2270 305° West 429 494 38,000  Level FlightAware
07:36AM 50.6060 5.1290 305° West 427 491 38,000  Level FlightAware
07:37AM 50.6620 5.0030 305° West 429 494 38,000  Level FlightAware
07:38AM 50.7080 4.8970 304° West 427 491 38,000  Level FlightAware
07:39AM 50.7560 4.7860 304° West 425 489 38,000  Level FlightAware
07:39AM 50.8020 4.6790 304° West 423 487 38,000  Level FlightAware
07:40AM 50.8520 4.5660 305° West 425 489 38,000 -1,620 Level FlightAware
07:40AM 50.8715 4.5155 305° West 432 497 36,400 -2,940 Descending FlightAware UK
07:41AM 50.8925 4.4707 307° West 434 499 36,400 3,840 Level FlightAware UK
07:41AM 50.8940 4.4670 307° West 426 490 38,000  Climbing FlightAware
07:41AM 50.9256 4.3935 307° West 438 504 36,400  Descending FlightAware UK
07:41AM 50.9400 4.3590 307° West 428 493 38,000 120 Climbing FlightAware
07:42AM 50.9654 4.3000 307° West 438 504 36,500 120 Descending FlightAware UK
07:42AM 50.9900 4.2430 307° West 429 494 38,100  Climbing FlightAware
07:42AM 51.0121 4.1913 307° West 434 499 36,500 -180 Descending FlightAware UK
07:43AM 51.0330 4.1420 307° West 431 496 38,000 1,260 Climbing FlightAware
07:44AM 51.0690 4.0130 294° West 416 479 38,000  Level FlightAware
07:44AM 51.0880 3.8990 285° West 418 481 38,000 -1,440 Level FlightAware
07:45AM 51.1024 3.8127 285° West 444 511 36,500 120 Descending FlightAware UK
07:45AM 51.1090 3.7750 285° West 416 479 38,100 1,680 Climbing FlightAware
07:46AM 51.1290 3.6550 285° West 414 476 38,100 -1,320 Level FlightAware
07:46AM 51.1463 3.5460 285° West 444 511 36,500  Descending FlightAware UK
07:46AM 51.1480 3.5390 285° West 412 474 38,100  Climbing FlightAware
07:47AM 51.1634 3.4408 285° West 440 506 36,500 -180 Descending FlightAware UK
07:47AM 51.1690 3.4090 285° West 407 468 38,000 -180 Climbing FlightAware
07:47AM 51.1858 3.3022 285° West 442 509 36,400  Descending FlightAware UK
07:48AM 51.1910 3.2720 285° West 406 467 38,000 120 Climbing FlightAware
07:48AM 51.2049 3.1818 285° West 448 516 36,500  Descending FlightAware UK
07:48AM 51.2090 3.1580 285° West 402 463 38,000 1,560 Climbing FlightAware
07:49AM 51.2290 3.0320 284° West 399 459 38,000  Level FlightAware
07:50AM 51.2470 2.9160 284° West 397 457 38,000  Level FlightAware
07:51AM 51.2660 2.8010 285° West 396 456 38,000  Level FlightAware
07:51AM 51.2850 2.6800 284° West 394 453 38,000 -1,740 Level FlightAware
07:51AM 51.2936 2.6207 284° West 442 509 36,400  Descending FlightAware UK
07:52AM 51.3010 2.5710 284° West 394 453 38,000 2,160 Climbing FlightAware
07:52AM 51.3118 2.5013 284° West 394 453 38,000 -2,280 Level FlightAware ADS-B
07:53AM 51.3219 2.4347 284° West 438 504 36,400  Descending FlightAware UK
07:53AM 51.3289 2.3901 284° West 395 455 38,000  Climbing FlightAware ADS-B
07:53AM 51.3376 2.3339 284° West 440 506 36,400  Descending FlightAware UK
07:53AM 51.3436 2.2939 284° West 395 455 38,000  Climbing FlightAware ADS-B
07:54AM 51.3531 2.2319 284° West 442 509 36,400  Descending FlightAware UK
07:54AM 51.3591 2.1917 284° West 397 457 38,000 1,860 Climbing FlightAware ADS-B
07:55AM 51.3739 2.0916 283° West 397 457 38,000 -1,800 Level FlightAware ADS-B
07:55AM 51.3809 2.0439 283° West 442 509 36,500  Descending FlightAware UK
07:55AM 51.3889 1.9902 283° West 397 457 38,000  Climbing FlightAware ADS-B
07:55AM 51.3960 1.9416 283° West 440 506 36,500  Descending FlightAware UK
07:56AM 51.4055 1.8782 283° West 397 457 38,000  Climbing FlightAware ADS-B
07:56AM 51.4137 1.8228 283° West 440 506 36,500 -2,520 Descending FlightAware UK
07:56AM 51.4212 1.7715 283° West 440 506 36,500 2,400 Level FlightAware UK
07:57AM 51.4270 1.7290 283° West 397 457 38,000  Climbing FlightAware
07:57AM 51.4387 1.6514 283° West 438 504 36,500  Descending FlightAware UK
07:58AM 51.4480 1.5960 283° West 402 463 38,000  Climbing FlightAware
07:58AM 51.4595 1.5309 283° West 440 506 36,500  Descending FlightAware UK
07:58AM 51.4680 1.4820 283° West 403 464 38,000 2,640 Climbing FlightAware
07:58AM 51.4760 1.4371 286° West 405 466 38,000  Level FlightAware ADS-B
07:59AM 51.4865 1.3967 293° West 415 478 38,000  Level FlightAware ADS-B
07:59AM 51.4932 1.3774 299° West 418 481 38,000  Level FlightAware ADS-B
07:59AM 51.5244 1.2918 300° West 419 482 38,000  Level FlightAware ADS-B
08:00AM 51.5539 1.2078 299° West 420 483 38,000 -1,800 Level FlightAware ADS-B
08:00AM 51.5732 1.1522 299° West 444 511 36,500  Descending FlightAware UK
08:00AM 51.5839 1.1215 299° West 423 487 38,000  Climbing FlightAware ADS-B
08:01AM 51.6072 1.0543 299° West 448 516 36,500  Descending FlightAware UK
08:01AM 51.6139 1.0358 299° West 423 487 38,000  Climbing FlightAware ADS-B
08:01AM 51.6302 0.9887 299° West 446 513 36,500  Descending FlightAware UK
08:01AM 51.6456 0.9452 299° West 422 486 38,000  Climbing FlightAware ADS-B
08:02AM 51.6646 0.8904 299° West 446 513 36,500  Descending FlightAware UK
08:02AM 51.6748 0.8611 299° West 422 486 38,000  Climbing FlightAware ADS-B
08:02AM 51.6982 0.7923 299° West 444 511 36,500  Descending FlightAware UK
08:03AM 51.7039 0.7751 299° West 420 483 38,000  Climbing FlightAware ADS-B
08:03AM 51.7203 0.7266 299° West 446 513 36,500  Descending FlightAware UK
08:03AM 51.7385 0.6741 299° West 420 483 38,000 1,680 Climbing FlightAware ADS-B
08:04AM 51.7684 0.5882 299° West 419 482 38,000  Level FlightAware ADS-B
08:04AM 51.7976 0.5030 299° West 420 483 38,000 -1,980 Level FlightAware ADS-B
08:04AM 51.8158 0.4494 299° West 442 509 36,400  Descending FlightAware UK
08:05AM 51.8258 0.4196 299° West 420 483 38,000 2,220 Climbing FlightAware ADS-B
08:05AM 51.8545 0.3350 299° West 420 483 38,000  Level FlightAware ADS-B
08:06AM 51.8836 0.2494 299° West 419 482 38,000  Level FlightAware ADS-B
08:06AM 51.9014 0.1974 299° West 421 484 38,000  Level FlightAware ADS-B
08:06AM 51.9086 0.1793 303° West 424 488 38,000 -2,760 Level FlightAware ADS-B
08:07AM 51.9427 0.1120 303° West 446 513 36,500  Descending FlightAware UK
08:07AM 51.9490 0.1001 303° West 432 497 38,000  Climbing FlightAware ADS-B
08:07AM 51.9815 0.0395 303° West 448 516 36,500  Descending FlightAware UK
08:07AM 51.9890 0.0257 303° West 431 496 38,000  Climbing FlightAware ADS-B
08:08AM 52.0207 -0.0338 303° West 448 516 36,500  Descending FlightAware UK
08:08AM 52.0284 -0.0483 303° West 428 493 38,000 -840 Climbing FlightAware ADS-B
08:08AM 52.0591 -0.1072 303° West 444 511 36,100 -1,200 Descending FlightAware UK
08:08AM 52.0655 -0.1190 303° West 422 486 37,400 -3,000 Climbing FlightAware ADS-B
08:09AM 52.0967 -0.1783 303° West 446 513 34,600 -3,240 Descending FlightAware UK
08:09AM 52.1046 -0.1932 303° West 424 488 35,800 -1,320 Climbing FlightAware ADS-B
08:09AM 52.1442 -0.2683 311° West 434 499 33,800 -3,480 Descending FlightAware ADS-B
08:10AM 52.1846 -0.3429 311° West 429 494 32,300 -5,340 Descending FlightAware ADS-B
08:10AM 52.2136 -0.3963 311° West 448 516 29,200 -4,020 Descending FlightAware UK
08:10AM 52.2274 -0.4221 311° West 435 501 30,100 -1,740 Climbing FlightAware ADS-B
08:11AM 52.2674 -0.4988 310° West 439 505 28,000 -3,600 Descending FlightAware ADS-B
08:11AM 52.2990 -0.5573 311° West 436 502 26,800 -2,820 Descending FlightAware ADS-B
08:11AM 52.3119 -0.5751 320° Northwest 438 504 26,500 -5,760 Descending FlightAware ADS-B
08:12AM 52.3406 -0.6055 320° Northwest 442 509 24,500 -1,440 Descending FlightAware UK
08:12AM 52.3638 -0.6278 320° Northwest 439 505 25,800 -1,020 Climbing FlightAware ADS-B
08:12AM 52.3930 -0.6561 320° Northwest 432 497 24,000 -1,020 Descending FlightAware UK
08:13AM 52.4437 -0.7058 320° Northwest 423 487 25,000 -1,200 Climbing FlightAware ADS-B
08:13AM 52.4731 -0.7346 320° Northwest 426 490 23,100 -1,500 Descending FlightAware UK
08:13AM 52.5182 -0.7775 320° Northwest 415 478 23,900 -1,500 Climbing FlightAware ADS-B
08:14AM 52.5724 -0.8288 320° Northwest 418 481 21,600 -3,480 Descending FlightAware UK
08:14AM 52.6012 -0.8565 330° Northwest 414 476 21,100 2,220 Descending FlightAware UK
08:14AM 52.6020 -0.8590 330° Northwest 396 456 22,600 -1,260 Climbing FlightAware
08:15AM 52.6313 -0.9074 330° Northwest 414 476 20,600 -4,380 Descending FlightAware UK
08:15AM 52.6531 -0.9456 313° West 410 472 20,200 2,880 Descending FlightAware UK
08:15AM 52.6520 -0.9440 313° West 382 440 21,800 -1,200 Climbing FlightAware
08:15AM 52.6885 -1.0089 313° West 406 467 19,600 -1,440 Descending FlightAware UK
08:16AM 52.7057 -1.0394 313° West 377 434 20,900 -1,020 Climbing FlightAware ADS-B
08:16AM 52.7310 -1.0849 313° West 402 463 19,000 -1,200 Descending FlightAware UK
08:16AM 52.7412 -1.1029 313° West 375 432 20,300 -1,740 Climbing FlightAware ADS-B
08:17AM 52.7802 -1.1729 313° West 398 458 17,800 -3,720 Descending FlightAware UK
08:17AM 52.8014 -1.2107 313° West 396 456 17,300 2,700 Descending FlightAware UK
08:17AM 52.8000 -1.2080 313° West 380 437 18,900 780 Climbing FlightAware
08:18AM 52.8428 -1.2867 312° West 375 432 17,800 -1,920 Descending FlightAware ADS-B
08:18AM 52.8973 -1.3881 312° West 367 422 16,400 -3,060 Descending FlightAware ADS-B
08:19AM 52.9306 -1.4501 312° West 372 428 13,900 -1,680 Descending FlightAware UK
08:19AM 52.9460 -1.4790 312° West 359 413 15,000 -300 Climbing FlightAware
08:20AM 52.9920 -1.5650 312° West 344 396 13,600 -3,780 Descending FlightAware
08:20AM 53.0152 -1.6069 312° West 362 417 11,500 -1,800 Descending FlightAware UK
08:21AM 53.0350 -1.6440 312° West 340 391 12,400 -1,920 Climbing FlightAware
08:21AM 53.0651 -1.7014 312° West 354 407 10,000 -4,320 Descending FlightAware UK
08:21AM 53.0841 -1.7366 312° West 346 398 9,400 2,520 Descending FlightAware UK
08:21AM 53.0830 -1.7340 312° West 338 389 10,900 -1,680 Climbing FlightAware
08:22AM 53.1027 -1.7712 312° West 338 389 8,900 -4,020 Descending FlightAware UK
08:22AM 53.1199 -1.8035 312° West 326 375 8,700 3,120 Descending FlightAware UK
08:22AM 53.1210 -1.8060 312° West 301 346 10,200 -1,020 Climbing FlightAware
08:22AM 53.1466 -1.8534 312° West 292 336 8,200 -1,020 Descending FlightAware UK
08:22AM 53.1490 -1.8570 312° West 273 314 9,700 -1,020 Climbing FlightAware
08:23AM 53.1668 -1.8916 312° West 290 334 7,800 -1,020 Descending FlightAware UK
08:23AM 53.1740 -1.9040 312° West 267 307 9,200 2,100 Climbing FlightAware
08:23AM 53.1850 -1.9260 310° West 257 296 8,800 -1,680 Descending FlightAware
08:24AM 53.2050 -1.9650 311° West 254 292 8,100 -1,800 Descending FlightAware
08:24AM 53.2290 -2.0110 311° West 259 298 7,200 -3,240 Descending FlightAware
08:24AM 53.2481 -2.0463 311° West 278 320 5,500 -480 Descending FlightAware UK
08:25AM 53.2490 -2.0480 311° West 265 305 7,000 4,260 Climbing FlightAware
08:25AM 53.2630 -2.0610 331° Northwest 280 322 7,000  Level FlightAware
08:25AM 53.2850 -2.0630 357° North 292 336 7,000  Level FlightAware
08:25AM 53.3060 -2.0480 23° Northeast 305 351 7,000  Level FlightAware
08:26AM 53.3200 -2.0220 48° Northeast 307 353 7,000 -780 Level FlightAware
08:26AM 53.3390 -1.9730 57° Northeast 306 352 6,500 -1,380 Descending FlightAware
08:26AM 53.3550 -1.9500 41° Northeast 298 343 6,100 -2,040 Descending FlightAware
08:26AM 53.3750 -1.9390 18° North 274 315 5,500 -5,220 Descending FlightAware
08:27AM 53.4100 -1.9358 18° North 262 302 2,800 -2,400 Descending FlightAware UK
08:27AM 53.4070 -1.9370 18° North 284 327 4,500 2,640 Climbing FlightAware
08:27AM 53.4390 -1.9360 North 275 316 4,000 -3,300 Descending FlightAware
08:28AM 53.4612 -1.9444 North 230 265 2,300 -600 Descending FlightAware UK
08:28AM 53.4680 -1.9570 North 212 244 3,700 2,160 Climbing FlightAware
08:28AM 53.4720 -1.9820 285° West 193 222 3,400 -1,020 Descending FlightAware
08:28AM 53.4720 -1.9990 285° West 188 216 3,200 -6,000 Descending FlightAware
08:28AM 53.4727 -2.0121 285° West 196 226 1,600 -6,840 Descending FlightAware UK
08:29AM 53.4707 -2.0277 285° West 188 216 1,500 3,060 Descending FlightAware UK
08:29AM 53.4670 -2.0360 285° West 166 191 3,000  Climbing FlightAware
08:29AM 53.4576 -2.0585 285° West 182 209 1,500  Descending FlightAware UK
08:29AM 53.4580 -2.0580 285° West 143 165 3,000 3,600 Climbing FlightAware
08:29AM 53.4500 -2.0750 232° Southwest 139 160 3,000 -3,420 Level FlightAware
08:30AM 53.4405 -2.0952 232° Southwest 166 191 1,200 -600 Descending FlightAware UK
08:30AM 53.4370 -2.1010 232° Southwest 136 157 2,700 1,860 Climbing FlightAware
08:30AM 53.4280 -2.1210 233° Southwest 136 157 2,400 -3,240 Descending FlightAware
08:31AM 53.4183 -2.1410 233° Southwest 166 191 500 -840 Descending FlightAware UK
08:31AM 53.4150 -2.1470 233° Southwest 135 155 2,000 -840 Climbing FlightAware
08:31AM 53.4061 -2.1665 233° Southwest 164 189 100 -900 Descending FlightAware UK
08:31AM 53.4070 -2.1650 233° Southwest 132 152 1,700 1,800 Climbing FlightAware
08:32AM 53.3940 -2.1920 231° Southwest 120 138 1,300 -720 Descending FlightAware
08:32AM 53.3850 -2.2100 230° Southwest 112 129 1,000 -600 Descending FlightAware
08:33AM 53.3770 -2.2260 230° Southwest 108 124 800 -600 Descending FlightAware
08:33AM 53.3680 -2.2450 232° Southwest 107 123 500 -600 Descending FlightAware
08:34AM 53.3590 -2.2650 233° Southwest 112 129 200 -360 Descending FlightAware
08:34AM 53.3510 -2.2810 230° Southwest 112 129 200  Level FlightAware
08:37AM 53.3537 -2.2750 53° Northeast  Level Estimated
08:38AM 53.3537 -2.2750 North  Level Estimated
08:39AM 53.3537 -2.2750 North  Level Estimated
08:40AM 53.3537 -2.2750 North  Level Estimated
08:41AM 53.3537 -2.2750 North  Level Estimated
08:42AM 53.3537 -2.2750 North  Level Estimated
08:43AM 53.3537 -2.2750 North  Level Estimated
08:44AM 53.3537 -2.2750 North  Level Estimated
08:45AM 53.3537 -2.2750 North  Level Estimated
08:46AM 53.3537 -2.2750 North  Level Estimated
08:47AM 53.3537 -2.2750 North  Level Estimated